Time;durP1;ratioP1;P1;durP2;ratioP2;P2;SDS_P1;SDS_P2;PMS_P1;PMS_P2;Temp;Humidity;BMP_temperature;BMP_pressure;BME280_temperature;BME280_humidity;BME280_pressure;Samples;Min_cycle;Max_cycle;Signal;HPM_P1;HPM_P2
2022/07/28 00:01:51;;;;;;;3.83;1.95;;;11.90;99.90;;;;;;5049999;28;20037;-72
2022/07/28 00:04:17;;;;;;;5.00;1.98;;;11.80;99.90;;;;;;5044382;28;20531;-72
2022/07/28 00:06:42;;;;;;;4.30;2.00;;;11.90;99.90;;;;;;5045334;28;20029;-71
2022/07/28 00:09:08;;;;;;;2.42;2.00;;;11.90;99.90;;;;;;5051071;28;20095;-72
2022/07/28 00:11:34;;;;;;;5.68;2.40;;;12.10;99.90;;;;;;5057791;28;20036;-72
2022/07/28 00:13:59;;;;;;;6.63;2.42;;;12.10;99.90;;;;;;5050753;28;20047;-72
2022/07/28 00:16:26;;;;;;;5.15;2.33;;;11.90;99.90;;;;;;5054069;28;20495;-72
2022/07/28 00:18:51;;;;;;;5.60;2.20;;;11.90;99.90;;;;;;5046039;28;20044;-72
2022/07/28 00:21:17;;;;;;;4.50;2.58;;;11.90;99.90;;;;;;5050945;28;20423;-72
2022/07/28 00:23:42;;;;;;;3.20;2.45;;;11.90;99.90;;;;;;5047625;28;20522;-72
2022/07/28 00:26:08;;;;;;;4.40;2.55;;;11.90;99.90;;;;;;5059513;28;20589;-72
2022/07/28 00:28:35;;;;;;;3.13;1.80;;;11.80;99.90;;;;;;5045541;28;20562;-75
2022/07/28 00:31:00;;;;;;;3.13;2.45;;;11.80;99.90;;;;;;5048427;28;20212;-73
2022/07/28 00:33:26;;;;;;;4.57;2.35;;;11.80;99.90;;;;;;5046710;28;20032;-73
2022/07/28 00:35:51;;;;;;;3.13;1.95;;;11.90;99.90;;;;;;5055721;28;20682;-73
2022/07/28 00:38:17;;;;;;;4.07;2.25;;;11.90;99.90;;;;;;5055113;28;20041;-73
2022/07/28 00:43:27;;;;;;;4.28;2.17;;;11.80;99.90;;;;;;5030053;28;20135;-73
2022/07/28 00:45:52;;;;;;;4.50;2.47;;;11.70;99.90;;;;;;5058639;28;20132;-74
2022/07/28 00:48:18;;;;;;;15.88;3.67;;;11.70;99.90;;;;;;5046806;28;20128;-72
2022/07/28 00:50:44;;;;;;;3.13;2.30;;;11.60;99.90;;;;;;5059541;28;20048;-73
2022/07/28 00:53:10;;;;;;;3.15;2.47;;;11.60;99.90;;;;;;5048312;28;20091;-73
2022/07/28 00:55:37;;;;;;;5.35;2.28;;;11.40;99.90;;;;;;5044088;28;20417;-73
2022/07/28 00:58:03;;;;;;;1.85;1.58;;;11.50;99.90;;;;;;5044521;28;20045;-73
2022/07/28 01:00:28;;;;;;;9.15;3.65;;;11.50;99.90;;;;;;5041770;28;20052;-73
2022/07/28 01:02:54;;;;;;;2.72;1.73;;;11.30;99.90;;;;;;5044178;28;20048;-73
2022/07/28 01:05:20;;;;;;;2.53;2.20;;;11.50;99.90;;;;;;5067062;28;20044;-73
2022/07/28 01:08:35;;;;;;;4.75;2.60;;;11.60;99.90;;;;;;5047376;28;20102;-73
2022/07/28 01:11:16;;;;;;;5.40;2.80;;;11.50;99.90;;;;;;5031071;28;20131;-74
2022/07/28 01:13:49;;;;;;;6.05;2.78;;;11.50;99.90;;;;;;5066156;28;20058;-73
2022/07/28 01:16:15;;;;;;;4.75;1.80;;;11.60;99.90;;;;;;5048971;28;20047;-73
2022/07/28 01:19:26;;;;;;;3.67;2.20;;;11.60;99.90;;;;;;5061074;28;20028;-73
2022/07/28 01:21:54;;;;;;;2.30;1.90;;;11.60;99.90;;;;;;5023116;28;20148;-73
2022/07/28 01:24:48;;;;;;;9.60;2.78;;;11.60;99.90;;;;;;5059341;28;20514;-73
2022/07/28 01:27:49;;;;;;;7.35;3.35;;;11.50;99.90;;;;;;5041802;28;20052;-73
2022/07/28 01:30:30;;;;;;;3.33;1.77;;;11.60;99.90;;;;;;5041322;28;20048;-73
2022/07/28 01:33:00;;;;;;;2.88;2.35;;;11.50;99.90;;;;;;5048468;28;20044;-72
2022/07/28 01:35:29;;;;;;;5.15;2.53;;;11.60;99.90;;;;;;5049657;28;20044;-74
2022/07/28 01:38:00;;;;;;;7.68;2.00;;;11.70;99.90;;;;;;5062078;28;20041;-73
2022/07/28 01:40:29;;;;;;;5.15;2.88;;;11.60;99.90;;;;;;5057252;28;20377;-71
2022/07/28 01:43:00;;;;;;;3.65;2.90;;;11.60;99.90;;;;;;5055660;28;20169;-71
2022/07/28 01:45:28;;;;;;;7.95;3.33;;;11.50;99.90;;;;;;5058320;28;20388;-71
2022/07/28 01:47:58;;;;;;;3.03;2.50;;;11.50;99.90;;;;;;5044854;22;20053;-75
2022/07/28 01:50:26;;;;;;;4.70;2.28;;;11.60;99.90;;;;;;5016881;28;20045;-72
2022/07/28 01:52:54;;;;;;;2.85;1.67;;;11.40;99.90;;;;;;5024045;28;20041;-73
2022/07/28 01:55:22;;;;;;;2.90;2.30;;;11.10;99.90;;;;;;5024492;28;20080;-72
2022/07/28 01:57:49;;;;;;;2.05;1.60;;;11.00;99.90;;;;;;5025444;28;20503;-72
2022/07/28 02:00:16;;;;;;;3.88;1.92;;;11.00;99.90;;;;;;5023909;28;20045;-72
2022/07/28 02:02:44;;;;;;;4.03;2.65;;;11.10;99.90;;;;;;5024529;28;20037;-73
2022/07/28 02:05:17;;;;;;;5.13;2.22;;;10.90;99.90;;;;;;5031545;28;22763;-73
2022/07/28 02:07:46;;;;;;;4.60;2.00;;;10.70;99.90;;;;;;5007154;28;20687;-72
2022/07/28 02:10:15;;;;;;;7.35;2.95;;;10.60;99.90;;;;;;5018221;28;20379;-72
2022/07/28 02:12:45;;;;;;;4.40;2.40;;;10.90;99.90;;;;;;5025547;28;20045;-72
2022/07/28 02:15:13;;;;;;;2.65;1.85;;;10.90;99.90;;;;;;5023666;28;20304;-72
2022/07/28 02:17:44;;;;;;;3.67;2.15;;;11.00;99.90;;;;;;5023666;28;20045;-73
2022/07/28 02:20:11;;;;;;;4.03;2.38;;;11.10;99.90;;;;;;5024658;28;20038;-73
2022/07/28 02:22:39;;;;;;;3.95;1.95;;;11.10;99.90;;;;;;5025934;28;20079;-73
2022/07/28 02:25:06;;;;;;;4.38;2.92;;;11.20;99.90;;;;;;5040085;28;20431;-72
2022/07/28 02:27:46;;;;;;;6.60;3.78;;;11.20;99.90;;;;;;5023325;28;20038;-72
2022/07/28 02:30:16;;;;;;;4.10;2.17;;;11.10;99.90;;;;;;5001384;28;20466;-73
2022/07/28 02:32:53;;;;;;;6.30;2.50;;;11.10;99.90;;;;;;5023923;28;20037;-74
2022/07/28 02:35:38;;;;;;;3.15;2.25;;;11.10;99.90;;;;;;5023787;28;20055;-73
2022/07/28 02:38:13;;;;;;;5.65;2.80;;;10.90;99.90;;;;;;5022287;28;20510;-73
2022/07/28 02:40:41;;;;;;;3.60;2.13;;;10.90;99.90;;;;;;5023479;28;20071;-74
2022/07/28 02:43:14;;;;;;;7.75;2.70;;;11.00;99.90;;;;;;5024924;28;20045;-73
2022/07/28 02:45:43;;;;;;;3.45;2.17;;;11.00;99.90;;;;;;5021101;28;20074;-73
2022/07/28 02:48:13;;;;;;;5.28;2.85;;;11.00;99.90;;;;;;5021180;28;20053;-73
2022/07/28 02:50:40;;;;;;;2.45;2.03;;;11.10;99.90;;;;;;5022965;28;20589;-73
2022/07/28 02:53:07;;;;;;;3.88;2.50;;;11.10;99.90;;;;;;5023447;28;20563;-73
2022/07/28 02:55:35;;;;;;;3.10;2.80;;;11.00;99.90;;;;;;5025161;28;20106;-72
2022/07/28 02:58:03;;;;;;;7.07;2.58;;;11.00;99.90;;;;;;5023383;28;20049;-74
2022/07/28 03:00:29;;;;;;;3.95;2.85;;;10.90;99.90;;;;;;5024867;28;20045;-74
2022/07/28 03:02:56;;;;;;;4.55;2.08;;;10.90;99.90;;;;;;5019700;28;20083;-73
2022/07/28 03:05:22;;;;;;;5.70;3.08;;;10.80;99.90;;;;;;5022404;28;20171;-74
2022/07/28 03:07:51;;;;;;;4.97;2.00;;;10.80;99.90;;;;;;5024681;28;20450;-73
2022/07/28 03:10:22;;;;;;;4.13;2.83;;;10.80;99.90;;;;;;5032250;28;20053;-73
2022/07/28 03:12:48;;;;;;;4.65;2.60;;;10.80;99.90;;;;;;5019476;28;20081;-74
2022/07/28 03:15:14;;;;;;;5.20;2.17;;;10.50;99.90;;;;;;5022936;28;20042;-73
2022/07/28 03:17:40;;;;;;;9.18;3.25;;;10.30;99.90;;;;;;5020733;28;20083;-73
2022/07/28 03:20:06;;;;;;;3.08;1.85;;;10.20;99.90;;;;;;5025785;28;20037;-74
2022/07/28 03:22:32;;;;;;;3.60;3.13;;;10.30;99.90;;;;;;5025126;28;20045;-73
2022/07/28 03:24:59;;;;;;;3.90;1.77;;;10.30;99.90;;;;;;5022900;28;20482;-73
2022/07/28 03:27:29;;;;;;;5.63;3.03;;;10.30;99.90;;;;;;5024789;28;20033;-73
2022/07/28 03:30:01;;;;;;;5.15;2.00;;;10.40;99.90;;;;;;5028663;28;20529;-73
2022/07/28 03:32:29;;;;;;;5.95;3.17;;;10.50;99.90;;;;;;5026625;28;20034;-73
2022/07/28 03:34:55;;;;;;;1.88;1.50;;;10.50;99.90;;;;;;5026609;28;20045;-73
2022/07/28 03:37:30;;;;;;;2.50;1.73;;;10.60;99.90;;;;;;5026633;28;20069;-73
2022/07/28 03:39:58;;;;;;;6.40;2.20;;;10.50;99.90;;;;;;5025933;28;20045;-73
2022/07/28 03:42:26;;;;;;;3.67;1.90;;;10.50;99.90;;;;;;5028707;28;20116;-73
2022/07/28 03:44:52;;;;;;;5.25;2.25;;;10.60;99.90;;;;;;5042266;28;20042;-73
2022/07/28 03:47:22;;;;;;;3.58;2.13;;;10.60;99.90;;;;;;5026625;28;20103;-73
2022/07/28 03:49:49;;;;;;;2.20;1.88;;;10.70;99.90;;;;;;5009618;28;20535;-73
2022/07/28 03:52:16;;;;;;;4.22;2.25;;;10.60;99.90;;;;;;5039703;28;20077;-73
2022/07/28 03:54:42;;;;;;;3.50;1.95;;;10.70;99.90;;;;;;5040712;28;20042;-74
2022/07/28 03:57:08;;;;;;;5.43;2.28;;;10.60;99.90;;;;;;5024996;28;20119;-74
2022/07/28 03:59:33;;;;;;;6.70;2.08;;;10.80;99.90;;;;;;5027367;28;20045;-73
2022/07/28 04:01:59;;;;;;;1.90;1.60;;;10.90;99.90;;;;;;5025840;28;20140;-73
2022/07/28 04:04:25;;;;;;;3.17;2.42;;;11.00;99.90;;;;;;5028704;28;20066;-73
2022/07/28 04:06:50;;;;;;;2.53;1.92;;;11.00;99.90;;;;;;5026214;28;20041;-73
2022/07/28 04:09:16;;;;;;;4.25;2.17;;;10.90;99.90;;;;;;5027446;28;20470;-73
2022/07/28 04:11:42;;;;;;;2.85;1.55;;;11.00;99.90;;;;;;5027562;28;20445;-74
2022/07/28 04:14:08;;;;;;;3.80;1.63;;;11.10;99.90;;;;;;5026870;28;20128;-73
2022/07/28 04:16:34;;;;;;;4.65;2.83;;;11.10;99.90;;;;;;5028801;28;20547;-74
2022/07/28 04:19:00;;;;;;;2.95;2.33;;;11.20;99.90;;;;;;5027149;28;20041;-73
2022/07/28 04:21:25;;;;;;;7.05;2.10;;;11.30;99.90;;;;;;5026396;28;20088;-73
2022/07/28 04:23:51;;;;;;;2.30;1.92;;;11.30;99.90;;;;;;5026118;28;20547;-73
2022/07/28 04:26:17;;;;;;;2.88;2.20;;;11.20;99.90;;;;;;5027925;28;20046;-73
2022/07/28 04:28:44;;;;;;;2.75;1.90;;;11.30;99.90;;;;;;5024643;28;20040;-74
2022/07/28 04:31:10;;;;;;;3.38;2.42;;;11.10;99.90;;;;;;5023873;28;20054;-74
2022/07/28 04:33:35;;;;;;;4.60;2.45;;;11.30;99.90;;;;;;5041816;28;20038;-74
2022/07/28 04:36:01;;;;;;;2.22;1.98;;;11.30;99.90;;;;;;5025054;28;20073;-74
2022/07/28 04:38:27;;;;;;;11.48;3.90;;;11.40;99.90;;;;;;5034029;28;20133;-74
2022/07/28 04:40:53;;;;;;;7.50;2.15;;;11.40;99.90;;;;;;5041034;28;20438;-75
2022/07/28 04:43:19;;;;;;;5.70;2.83;;;11.30;99.90;;;;;;5025453;28;20041;-73
2022/07/28 04:45:45;;;;;;;5.50;3.22;;;11.40;99.90;;;;;;5025811;28;20396;-74
2022/07/28 04:48:11;;;;;;;3.00;2.65;;;11.40;99.90;;;;;;5025269;28;20064;-74
2022/07/28 04:50:40;;;;;;;5.95;2.90;;;11.50;99.90;;;;;;5026992;28;20045;-73
2022/07/28 04:53:07;;;;;;;4.45;2.50;;;11.40;99.90;;;;;;5025123;28;20037;-74
2022/07/28 04:55:33;;;;;;;3.92;2.40;;;11.50;99.90;;;;;;5023533;28;20084;-73
2022/07/28 04:57:59;;;;;;;6.15;2.17;;;11.50;99.90;;;;;;5024371;28;20073;-73
2022/07/28 05:00:25;;;;;;;2.17;1.88;;;11.40;99.90;;;;;;5025302;28;20053;-72
2022/07/28 05:02:51;;;;;;;4.13;2.10;;;11.40;99.90;;;;;;5042364;28;20068;-74
2022/07/28 05:05:16;;;;;;;5.00;2.60;;;11.40;99.90;;;;;;5025152;28;20416;-74
2022/07/28 05:07:42;;;;;;;3.75;2.35;;;11.30;99.90;;;;;;5018873;28;20572;-72
2022/07/28 05:10:10;;;;;;;6.45;2.85;;;11.40;99.90;;;;;;5026185;28;20556;-72
2022/07/28 05:12:36;;;;;;;6.05;2.33;;;11.50;99.90;;;;;;5025126;28;20128;-73
2022/07/28 05:15:03;;;;;;;3.22;2.33;;;11.50;99.90;;;;;;5022293;28;20048;-72
2022/07/28 05:17:29;;;;;;;2.58;1.95;;;11.60;99.90;;;;;;5025681;28;20047;-73
2022/07/28 05:19:54;;;;;;;2.78;2.38;;;11.60;99.90;;;;;;5022944;28;20132;-72
2022/07/28 05:22:20;;;;;;;3.42;2.85;;;11.70;99.90;;;;;;5022485;28;20128;-72
2022/07/28 05:24:46;;;;;;;4.93;2.33;;;11.80;99.90;;;;;;5023490;28;20403;-72
2022/07/28 05:27:11;;;;;;;5.32;3.03;;;11.90;99.90;;;;;;5023596;28;20033;-73
2022/07/28 05:29:40;;;;;;;4.68;3.38;;;11.90;99.90;;;;;;5023398;28;20056;-73
2022/07/28 05:32:10;;;;;;;6.18;2.75;;;12.10;99.90;;;;;;5025533;28;20144;-73
2022/07/28 05:34:36;;;;;;;5.80;2.92;;;12.10;99.90;;;;;;5026266;28;20073;-73
2022/07/28 05:37:02;;;;;;;5.20;2.95;;;12.30;99.90;;;;;;5023269;28;20119;-73
2022/07/28 05:39:30;;;;;;;4.85;3.78;;;12.40;99.90;;;;;;5024329;28;21562;-73
2022/07/28 05:41:56;;;;;;;6.75;3.13;;;12.40;99.90;;;;;;5028579;28;20052;-73
2022/07/28 05:44:22;;;;;;;6.70;3.03;;;12.50;99.90;;;;;;5030692;28;20049;-74
2022/07/28 05:46:47;;;;;;;5.25;2.67;;;12.60;99.90;;;;;;5025182;28;20037;-73
2022/07/28 05:49:13;;;;;;;10.00;3.50;;;12.70;99.90;;;;;;5024585;28;20049;-73
2022/07/28 05:51:38;;;;;;;7.03;2.80;;;12.80;99.90;;;;;;5023362;28;20474;-73
2022/07/28 05:54:04;;;;;;;6.95;2.97;;;13.00;99.90;;;;;;5022921;28;20053;-73
2022/07/28 05:56:30;;;;;;;11.63;3.53;;;13.00;99.90;;;;;;5025053;28;20092;-74
2022/07/28 05:58:55;;;;;;;6.32;2.50;;;13.20;99.90;;;;;;5020677;28;20480;-73
2022/07/28 06:01:21;;;;;;;8.85;3.60;;;13.20;99.90;;;;;;5021860;28;20052;-73
2022/07/28 06:03:48;;;;;;;8.68;2.35;;;13.30;99.90;;;;;;5026624;28;20037;-73
2022/07/28 06:06:13;;;;;;;3.97;2.33;;;13.50;99.90;;;;;;5024861;28;20116;-73
2022/07/28 06:08:39;;;;;;;3.83;2.35;;;13.60;99.90;;;;;;5026287;28;20137;-73
2022/07/28 06:11:15;;;;;;;5.95;2.55;;;13.60;99.90;;;;;;5162430;27;20396;-72
2022/07/28 06:13:41;;;;;;;5.00;2.00;;;13.80;99.90;;;;;;5163583;27;20107;-74
2022/07/28 06:16:07;;;;;;;6.85;1.77;;;13.90;99.90;;;;;;5161604;27;20043;-74
2022/07/28 06:18:33;;;;;;;7.00;3.03;;;13.90;99.90;;;;;;5162740;27;20035;-72
2022/07/28 06:20:58;;;;;;;4.80;2.05;;;14.10;99.90;;;;;;5142282;27;20054;-76
2022/07/28 06:23:24;;;;;;;4.22;1.80;;;14.20;99.90;;;;;;5162038;27;20030;-74
2022/07/28 06:25:50;;;;;;;7.78;3.08;;;14.40;99.90;;;;;;5161323;27;20034;-72
2022/07/28 06:28:17;;;;;;;6.95;2.33;;;14.40;99.90;;;;;;5159832;27;20039;-73
2022/07/28 06:30:44;;;;;;;10.88;3.13;;;14.50;99.90;;;;;;5161184;27;20385;-73
2022/07/28 06:33:09;;;;;;;1.98;1.83;;;14.70;99.90;;;;;;5143871;27;20038;-73
2022/07/28 06:35:35;;;;;;;7.85;2.55;;;14.80;99.90;;;;;;5160274;27;20030;-73
2022/07/28 06:38:01;;;;;;;4.72;1.38;;;14.80;99.90;;;;;;5161990;27;20034;-73
2022/07/28 06:40:26;;;;;;;4.40;1.45;;;15.00;99.90;;;;;;5144555;27;20332;-72
2022/07/28 06:42:52;;;;;;;4.88;2.05;;;15.00;99.90;;;;;;5157987;27;20697;-73
2022/07/28 06:45:18;;;;;;;4.60;1.70;;;15.10;99.90;;;;;;5158731;27;20404;-75
2022/07/28 06:47:44;;;;;;;4.78;1.50;;;15.20;99.90;;;;;;5127002;27;20034;-74
2022/07/28 06:50:10;;;;;;;5.70;1.80;;;15.40;99.90;;;;;;5160595;27;20123;-74
2022/07/28 06:52:37;;;;;;;3.28;0.95;;;15.50;99.90;;;;;;5136350;27;20489;-74
2022/07/28 06:55:04;;;;;;;5.65;1.40;;;15.50;99.90;;;;;;5160321;27;20153;-73
2022/07/28 06:57:31;;;;;;;4.55;1.20;;;15.70;99.90;;;;;;5162163;27;20072;-74
2022/07/28 06:59:56;;;;;;;7.03;1.30;;;15.80;99.90;;;;;;5159066;27;20042;-73
2022/07/28 07:02:22;;;;;;;5.70;0.80;;;15.80;99.90;;;;;;5138813;27;20095;-73
2022/07/28 07:04:50;;;;;;;19.77;1.98;;;15.80;99.90;;;;;;5159613;27;20043;-73
2022/07/28 07:07:16;;;;;;;2.45;0.80;;;15.70;99.90;;;;;;5143191;27;20050;-74
2022/07/28 07:09:41;;;;;;;1.88;0.73;;;15.90;99.90;;;;;;5163987;27;20060;-73
2022/07/28 07:12:07;;;;;;;3.08;0.90;;;16.00;99.90;;;;;;5139511;27;20042;-73
2022/07/28 07:14:33;;;;;;;2.33;0.73;;;16.30;99.90;;;;;;5161736;27;20512;-74
2022/07/28 07:16:58;;;;;;;7.00;0.95;;;16.50;99.90;;;;;;5160596;27;20069;-73
2022/07/28 07:19:24;;;;;;;1.52;0.52;;;16.70;99.90;;;;;;5142410;27;20091;-73
2022/07/28 07:21:50;;;;;;;2.90;0.60;;;17.10;99.90;;;;;;5133322;27;20031;-74
2022/07/28 07:24:16;;;;;;;2.08;0.40;;;17.10;99.90;;;;;;5128896;27;20046;-72
2022/07/28 07:26:42;;;;;;;4.10;0.47;;;16.90;99.90;;;;;;5134908;27;20118;-72
2022/07/28 07:29:08;;;;;;;3.35;0.82;;;16.90;99.90;;;;;;5145365;27;20833;-73
2022/07/28 07:31:35;;;;;;;2.90;0.70;;;16.60;99.90;;;;;;5128417;27;20053;-75
2022/07/28 07:34:01;;;;;;;3.03;0.70;;;16.40;99.90;;;;;;5111289;27;20035;-73
2022/07/28 07:36:27;;;;;;;4.32;1.00;;;16.40;99.90;;;;;;5128303;27;20054;-73
2022/07/28 07:38:52;;;;;;;2.42;1.50;;;16.50;99.90;;;;;;5126082;27;20049;-75
2022/07/28 07:41:18;;;;;;;1.10;0.75;;;16.50;99.90;;;;;;5111022;27;20053;-73
2022/07/28 07:43:45;;;;;;;3.38;0.70;;;16.50;99.90;;;;;;5143306;27;20043;-73
2022/07/28 07:46:10;;;;;;;7.90;0.68;;;16.50;99.90;;;;;;5145715;27;20031;-73
2022/07/28 07:48:36;;;;;;;2.15;0.55;;;16.60;99.90;;;;;;5129264;27;20054;-74
2022/07/28 07:51:02;;;;;;;5.00;0.80;;;16.70;99.90;;;;;;5145547;27;20045;-74
2022/07/28 07:53:27;;;;;;;2.60;0.40;;;16.60;99.90;;;;;;5145238;27;20035;-74
2022/07/28 07:55:53;;;;;;;4.40;0.60;;;16.40;99.90;;;;;;5147283;27;20039;-76
2022/07/28 07:58:19;;;;;;;3.90;0.70;;;16.40;99.90;;;;;;5146816;27;20100;-74
2022/07/28 08:00:44;;;;;;;6.10;0.70;;;16.20;99.90;;;;;;5145360;27;20047;-74
2022/07/28 08:03:10;;;;;;;4.47;0.63;;;16.00;99.90;;;;;;5126314;27;20046;-74
2022/07/28 08:05:36;;;;;;;2.20;0.60;;;16.10;99.90;;;;;;5146200;27;20034;-75
2022/07/28 08:08:05;;;;;;;2.63;0.80;;;16.00;99.90;;;;;;5128999;27;20401;-77
2022/07/28 08:10:31;;;;;;;7.50;1.25;;;15.90;99.90;;;;;;5147097;27;20094;-76
2022/07/28 08:12:57;;;;;;;4.28;1.33;;;15.90;99.90;;;;;;5147286;27;20378;-76
2022/07/28 08:15:22;;;;;;;4.13;0.90;;;15.80;99.90;;;;;;5144483;27;20046;-77
2022/07/28 08:17:48;;;;;;;2.85;1.13;;;15.90;99.90;;;;;;5137528;27;20038;-77
2022/07/28 08:20:14;;;;;;;4.88;0.95;;;16.00;99.90;;;;;;5145304;27;20035;-77
2022/07/28 08:22:47;;;;;;;7.03;0.50;;;16.10;99.90;;;;;;5148099;27;20054;-76
2022/07/28 08:25:13;;;;;;;5.50;2.08;;;16.10;99.90;;;;;;5147932;27;20092;-76
2022/07/28 08:27:38;;;;;;;3.33;0.75;;;16.00;99.90;;;;;;5148636;27;20399;-76
2022/07/28 08:30:05;;;;;;;1.92;0.60;;;16.10;99.90;;;;;;5144167;27;20400;-75
2022/07/28 08:32:30;;;;;;;1.10;0.45;;;16.10;99.90;;;;;;5128350;27;20122;-75
2022/07/28 08:34:56;;;;;;;4.53;0.57;;;16.10;99.90;;;;;;5145541;27;20121;-74
2022/07/28 08:37:21;;;;;;;9.25;1.80;;;16.20;99.90;;;;;;5143795;27;20129;-75
2022/07/28 08:39:47;;;;;;;1.85;0.68;;;16.30;99.90;;;;;;5126313;27;20096;-76
2022/07/28 08:42:33;;;;;;;1.67;0.57;;;16.10;99.90;;;;;;5128731;27;20107;-76
2022/07/28 08:45:04;;;;;;;2.60;0.75;;;16.30;99.90;;;;;;5146425;27;20513;-76
2022/07/28 08:47:32;;;;;;;2.95;1.05;;;16.20;99.90;;;;;;5125645;27;20038;-74
2022/07/28 08:49:58;;;;;;;2.47;0.60;;;16.20;99.90;;;;;;5147018;27;20078;-74
2022/07/28 08:52:28;;;;;;;4.18;0.60;;;16.10;99.90;;;;;;5144865;27;20042;-75
2022/07/28 08:54:55;;;;;;;3.08;1.55;;;16.20;99.90;;;;;;5147538;27;20082;-75
2022/07/28 08:57:33;;;;;;;0.90;0.50;;;16.40;99.90;;;;;;5147140;27;20039;-75
2022/07/28 09:00:00;;;;;;;2.85;0.68;;;16.40;99.90;;;;;;5136016;27;20042;-75
2022/07/28 09:02:27;;;;;;;5.72;1.13;;;16.60;99.90;;;;;;5128609;27;20042;-75
2022/07/28 09:04:57;;;;;;;1.60;0.70;;;16.70;99.90;;;;;;5108164;27;20093;-75
2022/07/28 09:07:25;;;;;;;2.05;0.90;;;16.90;99.90;;;;;;5141078;27;20496;-75
2022/07/28 09:09:51;;;;;;;3.60;0.73;;;16.90;99.90;;;;;;5145667;27;20118;-83
2022/07/28 09:12:16;;;;;;;2.33;0.85;;;17.00;99.90;;;;;;5125656;27;20540;-77
2022/07/28 09:14:42;;;;;;;1.70;0.60;;;17.30;99.90;;;;;;5106901;27;20059;-75
2022/07/28 09:17:08;;;;;;;1.17;0.45;;;17.30;99.90;;;;;;5123439;27;20107;-75
2022/07/28 09:19:36;;;;;;;2.30;0.82;;;17.10;99.90;;;;;;5144600;27;20084;-76
2022/07/28 09:22:02;;;;;;;1.75;0.40;;;16.80;99.90;;;;;;5121522;27;20047;-76
2022/07/28 09:24:40;;;;;;;1.20;0.40;;;17.20;99.90;;;;;;5146847;27;20042;-76
2022/07/28 09:27:11;;;;;;;3.58;1.10;;;17.20;99.90;;;;;;5144272;27;20074;-76
2022/07/28 09:29:40;;;;;;;2.58;0.50;;;17.10;99.90;;;;;;5124237;27;20051;-76
2022/07/28 09:32:06;;;;;;;1.10;0.60;;;17.40;99.90;;;;;;5143977;27;20054;-76
2022/07/28 09:34:43;;;;;;;4.72;0.65;;;17.30;99.90;;;;;;5146014;27;20186;-76
2022/07/28 09:37:38;;;;;;;3.67;0.70;;;17.40;99.90;;;;;;5145414;27;20472;-76
2022/07/28 09:40:11;;;;;;;5.07;0.70;;;17.40;99.90;;;;;;5106613;27;20079;-75
2022/07/28 09:42:49;;;;;;;6.10;0.82;;;17.40;99.90;;;;;;5141781;27;20043;-76
2022/07/28 09:45:15;;;;;;;3.20;1.25;;;17.70;99.90;;;;;;5134087;27;20099;-77
2022/07/28 09:47:40;;;;;;;4.50;0.93;;;17.80;99.90;;;;;;5127267;27;20121;-75
2022/07/28 09:50:06;;;;;;;2.45;1.15;;;17.80;99.90;;;;;;5144305;27;20038;-78
2022/07/28 09:52:34;;;;;;;4.00;1.02;;;17.80;99.90;;;;;;5123834;27;20109;-74
2022/07/28 09:55:05;;;;;;;4.35;1.67;;;17.80;99.90;;;;;;5143563;27;20051;-75
2022/07/28 09:57:33;;;;;;;3.13;1.52;;;18.00;99.90;;;;;;5110635;27;20072;-75
2022/07/28 09:59:59;;;;;;;3.97;1.00;;;18.10;99.90;;;;;;5141242;27;20039;-74
2022/07/28 10:02:32;;;;;;;5.32;0.88;;;17.80;99.90;;;;;;5124268;27;20098;-74
2022/07/28 10:04:59;;;;;;;2.30;0.70;;;17.90;99.90;;;;;;5130274;27;20039;-75
2022/07/28 10:07:28;;;;;;;1.58;0.43;;;18.00;99.90;;;;;;5121260;27;20488;-75
2022/07/28 10:10:04;;;;;;;4.50;0.50;;;17.80;99.90;;;;;;5139663;27;20420;-75
2022/07/28 10:12:32;;;;;;;3.35;0.45;;;17.70;99.90;;;;;;5141178;27;20458;-75
2022/07/28 10:16:09;;;;;;;1.20;0.40;;;17.60;99.90;;;;;;5144782;27;20130;-75
2022/07/28 10:17:56;;;;;;;1.80;0.60;;;17.70;99.90;;;;;;5143224;27;20057;-75
2022/07/28 10:20:22;;;;;;;1.38;0.50;;;17.90;99.90;;;;;;5144615;27;20504;-74
2022/07/28 10:22:51;;;;;;;2.83;1.02;;;18.00;99.90;;;;;;5145148;27;20031;-74
2022/07/28 10:25:20;;;;;;;5.55;1.95;;;18.20;99.90;;;;;;5125904;27;20046;-75
2022/07/28 10:27:47;;;;;;;2.60;0.70;;;18.20;99.90;;;;;;5142437;27;20079;-74
2022/07/28 10:30:14;;;;;;;1.95;1.42;;;18.10;99.90;;;;;;5144584;27;20058;-74
2022/07/28 10:32:44;;;;;;;3.40;0.50;;;18.20;99.90;;;;;;5124922;27;20049;-74
2022/07/28 10:35:12;;;;;;;3.42;0.70;;;18.50;99.90;;;;;;5144622;27;20068;-75
2022/07/28 10:38:01;;;;;;;2.30;0.70;;;18.80;99.90;;;;;;5145254;27;20651;-74
2022/07/28 10:40:30;;;;;;;6.88;1.50;;;19.00;99.90;;;;;;5140470;27;20043;-74
2022/07/28 10:42:57;;;;;;;5.35;1.80;;;19.00;99.90;;;;;;5120385;27;20042;-75
2022/07/28 10:45:24;;;;;;;2.88;0.70;;;19.10;99.90;;;;;;5142983;27;20070;-74
2022/07/28 10:47:50;;;;;;;2.60;0.57;;;18.80;99.90;;;;;;5140883;27;20477;-75
2022/07/28 10:50:17;;;;;;;0.60;0.50;;;18.50;99.90;;;;;;5144912;27;20401;-73
2022/07/28 10:52:43;;;;;;;3.75;0.60;;;18.30;99.90;;;;;;5124766;27;20114;-74
2022/07/28 10:55:17;;;;;;;3.20;0.70;;;18.70;99.90;;;;;;5144333;27;20439;-75
2022/07/28 10:58:03;;;;;;;1.55;0.40;;;18.90;99.90;;;;;;5146604;27;20077;-74
2022/07/28 11:00:32;;;;;;;4.05;0.60;;;19.00;99.90;;;;;;5148524;27;20056;-79
2022/07/28 11:03:00;;;;;;;4.10;0.50;;;18.70;99.90;;;;;;5146703;27;20064;-76
2022/07/28 11:05:29;;;;;;;3.67;1.23;;;18.20;99.90;;;;;;5147211;27;20039;-75
2022/07/28 11:07:56;;;;;;;3.08;0.70;;;18.10;99.90;;;;;;5141933;27;20039;-74
2022/07/28 11:10:23;;;;;;;2.88;0.77;;;18.00;99.90;;;;;;5133118;27;20107;-75
2022/07/28 11:12:54;;;;;;;1.73;0.57;;;17.90;99.90;;;;;;5129227;27;20095;-76
2022/07/28 11:15:32;;;;;;;0.98;0.57;;;17.90;99.90;;;;;;5146523;27;20049;-75
2022/07/28 11:18:09;;;;;;;3.47;0.50;;;17.80;99.90;;;;;;5147749;27;20041;-75
2022/07/28 11:21:07;;;;;;;1.88;0.60;;;17.80;99.90;;;;;;5147532;27;20038;-77
2022/07/28 11:23:39;;;;;;;1.60;0.40;;;18.00;99.90;;;;;;5071861;27;20047;-76
2022/07/28 11:26:35;;;;;;;4.38;0.60;;;17.90;99.90;;;;;;5146710;27;20035;-75
2022/07/28 11:29:07;;;;;;;1.80;0.65;;;17.80;99.90;;;;;;5103936;27;20518;-75
2022/07/28 11:31:45;;;;;;;3.25;0.85;;;17.70;99.90;;;;;;5129046;27;20091;-75
2022/07/28 11:34:21;;;;;;;3.13;0.82;;;17.60;99.90;;;;;;5143574;27;20421;-75
2022/07/28 11:37:08;;;;;;;1.63;0.60;;;17.50;99.90;;;;;;5145368;27;20043;-75
2022/07/28 11:39:39;;;;;;;2.72;0.63;;;17.50;99.90;;;;;;5143940;27;20042;-77
2022/07/28 11:42:24;;;;;;;;;;;17.40;99.90;;;;;;5147864;27;20079;-76
2022/07/28 11:44:50;;;;;;;3.42;0.60;;;17.50;99.90;;;;;;5146851;27;19971;-77
2022/07/28 11:47:23;;;;;;;1.65;0.90;;;17.40;99.90;;;;;;5147892;27;20051;-77
2022/07/28 11:50:08;;;;;;;2.83;0.50;;;17.50;99.90;;;;;;5147529;27;20523;-76
2022/07/28 11:52:35;;;;;;;1.27;0.40;;;17.50;99.90;;;;;;5144059;27;20050;-76
2022/07/28 11:55:01;;;;;;;0.35;0.20;;;17.50;99.90;;;;;;5147188;27;20407;-76
2022/07/28 11:57:27;;;;;;;3.35;0.70;;;17.60;99.90;;;;;;5144613;27;20030;-77
2022/07/28 11:59:55;;;;;;;2.13;0.45;;;17.60;99.90;;;;;;5147174;27;20090;-77
2022/07/28 12:02:24;;;;;;;0.52;0.40;;;17.80;99.90;;;;;;5141108;27;20051;-76
2022/07/28 12:05:02;;;;;;;3.33;0.40;;;17.80;99.90;;;;;;5142798;27;20110;-77
2022/07/28 12:07:35;;;;;;;1.95;0.40;;;18.00;99.90;;;;;;5145694;27;20074;-76
2022/07/28 12:10:01;;;;;;;2.63;0.70;;;18.00;99.90;;;;;;5148252;27;20096;-77
2022/07/28 12:12:27;;;;;;;1.55;0.60;;;18.10;99.90;;;;;;5142603;27;20050;-76
2022/07/28 12:14:56;;;;;;;0.95;0.63;;;18.40;99.90;;;;;;5147493;27;20043;-75
2022/07/28 12:17:31;;;;;;;2.42;0.88;;;18.60;99.90;;;;;;5128133;27;20042;-75
2022/07/28 12:20:03;;;;;;;2.42;0.80;;;18.50;99.90;;;;;;5145448;27;20039;-75
2022/07/28 12:22:29;;;;;;;2.85;1.20;;;18.80;99.90;;;;;;5147783;27;20043;-76
2022/07/28 12:24:58;;;;;;;0.47;0.47;;;18.50;99.90;;;;;;5145269;27;20042;-76
2022/07/28 12:27:27;;;;;;;2.33;0.57;;;18.40;99.90;;;;;;5147314;27;20103;-76
2022/07/28 12:30:01;;;;;;;1.75;0.60;;;18.50;99.90;;;;;;5145464;27;20047;-76
2022/07/28 12:32:31;;;;;;;2.50;0.38;;;18.50;99.90;;;;;;5144916;27;20041;-77
2022/07/28 12:34:57;;;;;;;3.20;0.68;;;18.60;99.90;;;;;;5148614;27;20126;-76
2022/07/28 12:37:23;;;;;;;2.55;0.75;;;18.60;99.90;;;;;;5146209;27;20140;-75
2022/07/28 12:39:50;;;;;;;0.98;0.45;;;18.60;99.90;;;;;;5145241;27;20437;-74
2022/07/28 12:42:16;;;;;;;3.80;0.52;;;18.80;99.90;;;;;;5144405;27;20127;-77
2022/07/28 12:44:43;;;;;;;3.60;1.83;;;18.90;99.90;;;;;;5147206;27;20070;-77
2022/07/28 12:47:13;;;;;;;1.95;0.63;;;18.80;99.90;;;;;;5128441;27;20404;-77
2022/07/28 12:49:41;;;;;;;2.47;0.80;;;18.90;99.90;;;;;;5140398;27;20046;-76
2022/07/28 12:52:15;;;;;;;3.00;0.80;;;18.90;99.90;;;;;;5145950;27;20046;-76
2022/07/28 12:54:41;;;;;;;2.88;0.50;;;19.20;99.90;;;;;;5147855;27;20489;-76
2022/07/28 12:57:07;;;;;;;3.65;0.57;;;18.90;99.90;;;;;;5146701;27;20049;-76
2022/07/28 12:59:34;;;;;;;3.28;0.80;;;19.20;99.90;;;;;;5145787;27;20483;-76